Flight Track Log - Related Links

Times and Time Zones

All times are in EDT time to prevent confusion due to time zone crossing. See the ASQ5685 flight status page for this flight to view local times or setup timezone preferences in your user account.

Time Position Orientation Groundspeed Altitude Reporting Facility
EDT Latitude Longitude Course Direction KTS MPH feet Rate Location/Type
Fri 09:21:51 AM 33.6333 -84.3833 99° East 147 169 2,700  Level Atlanta TRACON
Fri 09:23:49 AM 33.6314 -84.2458 91° East 308 354 6,900 2,326 Climbing Atlanta Center
Fri 09:24:00 AM 33.8398 -84.1867 73° East  Level Estimated
Fri 09:24:49 AM 33.6336 -84.1636 88° East 259 298 9,600  Level Atlanta Center
Fri 09:25:00 AM 33.9073 -84.1060 54° Northeast  Level Estimated
Fri 09:25:49 AM 33.6481 -84.0789 78° East 259 298 11,300  Level Atlanta Center
Fri 09:26:00 AM 33.8932 -83.9927 99° East  Level FlightAware
Fri 09:26:49 AM 33.7108 -84.0014 46° Northeast 290 334 12,500  Level Atlanta Center
Fri 09:27:00 AM 33.8789 -83.8793 99° East  Level FlightAware
Fri 09:27:49 AM 33.7753 -83.9189 47° Northeast 320 368 13,700  Level Atlanta Center
Fri 09:28:49 AM 33.8419 -83.8286 48° Northeast 344 396 14,800 1,050 Climbing Atlanta Center
Fri 09:29:49 AM 33.9128 -83.7383 47° Northeast 358 412 15,800 1,000 Climbing Atlanta Center
Fri 09:30:49 AM 33.9772 -83.6406 52° Northeast 366 421 16,800 900 Climbing Atlanta Center
Fri 09:31:49 AM 34.0394 -83.5450 52° Northeast 366 421 17,600 700 Climbing Atlanta Center
Fri 09:32:49 AM 34.1017 -83.4442 53° Northeast 372 428 18,200 600 Climbing Atlanta Center
Fri 09:33:49 AM 34.1617 -83.3533 51° Northeast 372 428 18,800 700 Climbing Atlanta Center
Fri 09:34:49 AM 34.2258 -83.2450 54° Northeast 388 447 19,600 700 Climbing Atlanta Center
Fri 09:35:49 AM 34.2939 -83.1386 52° Northeast 393 452 20,200 600 Climbing Atlanta Center
Fri 09:36:49 AM 34.3619 -83.0272 53° Northeast 393 452 20,800 600 Climbing Atlanta Center
Fri 09:37:49 AM 34.4297 -82.9156 54° Northeast 398 458 21,400 600 Climbing Atlanta Center
Fri 09:38:49 AM 34.4978 -82.8039 53° Northeast 411 473 22,000 600 Climbing Atlanta Center
Fri 09:39:49 AM 34.5675 -82.6942 52° Northeast 416 479 22,600 650 Climbing Atlanta Center
Fri 09:40:49 AM 34.6411 -82.5744 53° Northeast 410 472 23,300 600 Climbing Atlanta Center
Fri 09:41:49 AM 34.7108 -82.4619 53° Northeast 404 465 23,800 500 Climbing Atlanta Center
Fri 09:42:49 AM 34.7803 -82.3494 53° Northeast 415 478 24,300 500 Climbing Atlanta Center
Fri 09:43:49 AM 34.8494 -82.2317 54° Northeast 415 478 24,800 350 Climbing Atlanta Center
Fri 09:44:49 AM 34.9044 -82.1392 54° Northeast 420 483 25,000 100 Climbing Atlanta Center
Fri 09:45:49 AM 34.9858 -82.0131 52° Northeast 420 483 25,000  Level Atlanta Center
Fri 09:46:49 AM 35.0569 -81.8897 55° Northeast 436 502 25,000  Level Atlanta Center
Fri 09:47:49 AM 35.1233 -81.7611 58° Northeast 441 507 25,000  Level Atlanta Center
Fri 09:48:49 AM 35.1878 -81.6372 57° Northeast 441 507 25,000  Level Atlanta Center
Fri 09:49:49 AM 35.2561 -81.5081 57° Northeast 431 496 25,000  Level Atlanta Center
Fri 09:50:49 AM 35.3164 -81.3942 57° Northeast 405 466 25,000  Level Atlanta Center
Fri 09:51:49 AM 35.3722 -81.2856 58° Northeast 385 443 25,000  Level Atlanta Center
Fri 09:52:49 AM 35.4303 -81.1739 57° Northeast 385 443 25,000  Level Atlanta Center
Fri 09:53:49 AM 35.4861 -81.0647 58° Northeast 385 443 25,000  Level Atlanta Center
Fri 09:54:49 AM 35.5439 -80.9556 57° Northeast 380 437 25,000  Level Atlanta Center
Fri 09:55:49 AM 35.6017 -80.8461 57° Northeast 380 437 25,000  Level Atlanta Center
Fri 09:56:49 AM 35.6592 -80.7339 58° Northeast 380 437 25,000  Level Atlanta Center
Fri 09:57:49 AM 35.7167 -80.6242 57° Northeast 380 437 25,000  Level Atlanta Center
Fri 09:58:49 AM 35.7719 -80.5144 58° Northeast 380 437 25,000  Level Atlanta Center
Fri 09:59:49 AM 35.8292 -80.4017 58° Northeast 380 437 25,000  Level Atlanta Center
Fri 10:02:12 AM 35.9633 -80.1394 58° Northeast 378 435 25,000  Level Washington Center
Fri 10:03:12 AM 36.0194 -80.0322 57° Northeast 368 423 25,000  Level Washington Center
Fri 10:04:13 AM 36.0797 -79.9225 56° Northeast 368 423 25,000  Level Washington Center
Fri 10:05:11 AM 36.1378 -79.8178 56° Northeast 378 435 25,000  Level Washington Center
Fri 10:06:12 AM 36.2000 -79.7053 56° Northeast 393 452 25,000  Level Washington Center
Fri 10:07:13 AM 36.2622 -79.5978 54° Northeast 386 444 25,000  Level Washington Center
Fri 10:08:13 AM 36.3244 -79.4850 56° Northeast 386 444 25,000  Level Washington Center
Fri 10:09:13 AM 36.3864 -79.3744 55° Northeast 391 450 25,000  Level Washington Center
Fri 10:10:11 AM 36.4483 -79.2639 55° Northeast 391 450 25,000  Level Washington Center
Fri 10:11:11 AM 36.5081 -79.1503 57° Northeast 391 450 25,000  Level Washington Center
Fri 10:12:12 AM 36.5736 -79.0447 52° Northeast 391 450 25,000  Level Washington Center
Fri 10:13:12 AM 36.6353 -78.9311 56° Northeast 391 450 25,000  Level Washington Center
Fri 10:14:13 AM 36.6903 -78.8297 56° Northeast 396 456 25,000 -50 Level Washington Center
Fri 10:15:13 AM 36.7494 -78.7181 57° Northeast 396 456 24,900 -410 Descending Washington Center
Fri 10:16:10 AM 36.8175 -78.5911 56° Northeast 391 450 24,200 -458 Descending Washington Center
Fri 10:17:11 AM 36.8828 -78.4769 54° Northeast 391 450 24,000 -98 Descending Washington Center
Fri 10:18:12 AM 36.9561 -78.3781 47° Northeast 391 450 24,000 -99 Level Washington Center
Fri 10:19:12 AM 37.0372 -78.3056 36° Northeast 385 443 23,800 -347 Descending Washington Center
Fri 10:20:13 AM 37.1267 -78.2203 37° Northeast 397 457 23,300 -496 Descending Washington Center
Fri 10:21:13 AM 37.2244 -78.1272 37° Northeast 402 463 22,800 -513 Descending Washington Center
Fri 10:22:10 AM 37.3119 -78.0411 38° Northeast 402 463 22,300 -407 Descending Washington Center
Fri 10:23:11 AM 37.3992 -77.9550 38° Northeast 402 463 22,000 -149 Descending Washington Center
Fri 10:24:11 AM 37.4883 -77.8689 37° Northeast 402 463 22,000  Level Washington Center
Fri 10:25:12 AM 37.5858 -77.7958 31° Northeast 402 463 22,000 -198 Level Washington Center
Fri 10:26:12 AM 37.6889 -77.7358 25° Northeast 402 463 21,600 -1,339 Descending Washington Center
Fri 10:27:13 AM 37.7881 -77.6756 26° Northeast 396 456 19,300 -2,182 Descending Washington Center
Fri 10:28:13 AM 37.8828 -77.6228 24° Northeast 378 435 17,200 -2,390 Descending Washington Center
Fri 10:29:11 AM 37.9714 -77.5700 25° Northeast 365 420 14,600 -2,593 Descending Washington Center
Fri 10:30:11 AM 38.0469 -77.5297 23° Northeast 338 389 12,100 -2,281 Descending Washington Center
Fri 10:31:12 AM 38.1292 -77.4817 25° Northeast 333 383 10,000 -1,033 Descending Washington Center
Fri 10:32:13 AM 38.2008 -77.4386 25° Northeast 304 350 10,000  Level Washington Center
Fri 10:33:11 AM 38.2703 -77.3953 26° Northeast 283 326 10,000  Level Washington Center
Fri 10:34:12 AM 38.3417 -77.3600 21° North 278 320 10,000 -787 Level Washington Center
Fri 10:35:13 AM 38.4208 -77.3592 360° North 272 313 8,400 -1,765 Descending Washington Center
Fri 10:36:11 AM 38.4981 -77.3639 357° North 272 313 6,500 -1,780 Descending Washington Center
Fri 10:37:11 AM 38.5708 -77.3656 359° North 272 313 4,900 -1,059 Descending Washington Center
Fri 10:37:53 AM 38.6333 -77.3667 359° North 273 314 4,700 -412 Descending Potomac TRACON
Fri 10:38:53 AM 38.7167 -77.3667 360° North 268 308 4,200 -347 Descending Potomac TRACON
Fri 10:39:54 AM 38.7833 -77.3500 11° North 265 305 4,000 -105 Descending Potomac TRACON
Fri 10:40:47 AM 38.8500 -77.3500 360° North 263 303 4,000 -265 Level Potomac TRACON
Fri 10:41:47 AM 38.9167 -77.3500 360° North 254 292 3,500 -571 Descending Potomac TRACON
Fri 10:42:53 AM 38.9833 -77.3500 360° North 205 236 2,800 -667 Descending Potomac TRACON
Fri 10:43:53 AM 39.0167 -77.4000 311° West 193 222 2,100 -700 Descending Potomac TRACON

Login

Don't have an account? Register now (free) for customized features, flight alerts, and more!